sensor_id;sensor_type;location;lat;lon;timestamp;temperature;humidity
1083;DHT22;530;51.448;7.238;2022-12-18T00:01:22;-0.40;99.90
1083;DHT22;530;51.448;7.238;2022-12-18T00:03:49;-0.40;99.90
1083;DHT22;530;51.448;7.238;2022-12-18T00:06:15;-0.50;99.90
1083;DHT22;530;51.448;7.238;2022-12-18T00:08:42;-0.30;99.90
1083;DHT22;530;51.448;7.238;2022-12-18T00:11:11;-0.30;99.90
1083;DHT22;530;51.448;7.238;2022-12-18T00:13:37;-0.60;99.90
1083;DHT22;530;51.448;7.238;2022-12-18T00:16:09;-0.40;99.90
1083;DHT22;530;51.448;7.238;2022-12-18T00:18:35;-0.40;99.90
1083;DHT22;530;51.448;7.238;2022-12-18T00:21:04;-0.50;99.90
1083;DHT22;530;51.448;7.238;2022-12-18T00:23:30;-0.30;99.90
1083;DHT22;530;51.448;7.238;2022-12-18T00:26:06;-0.40;99.90
1083;DHT22;530;51.448;7.238;2022-12-18T00:28:32;-0.30;99.90
1083;DHT22;530;51.448;7.238;2022-12-18T00:31:06;-0.30;99.90
1083;DHT22;530;51.448;7.238;2022-12-18T00:33:33;-0.20;99.90
1083;DHT22;530;51.448;7.238;2022-12-18T00:36:22;-0.30;99.90
1083;DHT22;530;51.448;7.238;2022-12-18T00:38:48;-0.50;99.90
1083;DHT22;530;51.448;7.238;2022-12-18T00:41:15;-0.20;99.90
1083;DHT22;530;51.448;7.238;2022-12-18T00:44:05;-0.20;99.90
1083;DHT22;530;51.448;7.238;2022-12-18T00:46:31;-0.50;99.90
1083;DHT22;530;51.448;7.238;2022-12-18T00:48:56;-0.20;99.90
1083;DHT22;530;51.448;7.238;2022-12-18T00:51:22;-0.20;99.90
1083;DHT22;530;51.448;7.238;2022-12-18T00:53:48;-0.30;99.90
1083;DHT22;530;51.448;7.238;2022-12-18T00:56:13;-0.10;99.90
1083;DHT22;530;51.448;7.238;2022-12-18T00:58:39;-0.40;99.90
1083;DHT22;530;51.448;7.238;2022-12-18T01:01:05;-0.30;99.90
1083;DHT22;530;51.448;7.238;2022-12-18T01:03:31;-0.40;99.90
1083;DHT22;530;51.448;7.238;2022-12-18T01:05:56;-0.30;99.90
1083;DHT22;530;51.448;7.238;2022-12-18T01:08:23;-0.50;99.90
1083;DHT22;530;51.448;7.238;2022-12-18T01:10:48;-0.40;99.90
1083;DHT22;530;51.448;7.238;2022-12-18T01:13:14;-0.30;99.90
1083;DHT22;530;51.448;7.238;2022-12-18T01:15:40;-0.40;99.90
1083;DHT22;530;51.448;7.238;2022-12-18T01:18:06;-0.20;99.90
1083;DHT22;530;51.448;7.238;2022-12-18T01:20:32;-0.30;99.90
1083;DHT22;530;51.448;7.238;2022-12-18T01:22:58;-0.10;99.90
1083;DHT22;530;51.448;7.238;2022-12-18T01:25:23;-0.40;99.90
1083;DHT22;530;51.448;7.238;2022-12-18T01:27:49;-0.40;99.90
1083;DHT22;530;51.448;7.238;2022-12-18T01:30:15;-0.40;99.90
1083;DHT22;530;51.448;7.238;2022-12-18T01:32:40;-0.30;99.90
1083;DHT22;530;51.448;7.238;2022-12-18T01:35:06;-0.40;99.90
1083;DHT22;530;51.448;7.238;2022-12-18T01:37:32;-0.30;99.90
1083;DHT22;530;51.448;7.238;2022-12-18T01:39:58;-0.30;99.90
1083;DHT22;530;51.448;7.238;2022-12-18T01:42:24;-0.10;99.90
1083;DHT22;530;51.448;7.238;2022-12-18T01:49:59;-0.30;99.90
1083;DHT22;530;51.448;7.238;2022-12-18T01:52:29;-0.30;99.90
1083;DHT22;530;51.448;7.238;2022-12-18T01:54:56;-0.30;99.90
1083;DHT22;530;51.448;7.238;2022-12-18T01:57:23;-0.10;99.90
1083;DHT22;530;51.448;7.238;2022-12-18T01:59:52;-0.30;99.90
1083;DHT22;530;51.448;7.238;2022-12-18T02:02:19;-0.20;99.90
1083;DHT22;530;51.448;7.238;2022-12-18T02:04:45;-0.20;99.90
1083;DHT22;530;51.448;7.238;2022-12-18T02:07:20;-0.30;99.90
1083;DHT22;530;51.448;7.238;2022-12-18T02:12:24;-0.30;99.90
1083;DHT22;530;51.448;7.238;2022-12-18T02:15:00;-0.50;99.90
1083;DHT22;530;51.448;7.238;2022-12-18T02:17:36;-0.30;99.90
1083;DHT22;530;51.448;7.238;2022-12-18T02:20:17;-0.40;99.90
1083;DHT22;530;51.448;7.238;2022-12-18T02:28:36;-0.30;99.90
1083;DHT22;530;51.448;7.238;2022-12-18T02:31:05;-0.40;99.90
1083;DHT22;530;51.448;7.238;2022-12-18T02:33:33;-0.10;99.90
1083;DHT22;530;51.448;7.238;2022-12-18T02:36:00;-0.10;99.90
1083;DHT22;530;51.448;7.238;2022-12-18T02:38:27;-0.30;99.90
1083;DHT22;530;51.448;7.238;2022-12-18T02:40:54;-0.20;99.90
1083;DHT22;530;51.448;7.238;2022-12-18T02:43:20;-0.20;99.90
1083;DHT22;530;51.448;7.238;2022-12-18T02:46:20;-0.40;99.90
1083;DHT22;530;51.448;7.238;2022-12-18T02:48:49;-0.30;99.90
1083;DHT22;530;51.448;7.238;2022-12-18T02:51:54;-0.20;99.90
1083;DHT22;530;51.448;7.238;2022-12-18T02:57:03;-0.20;99.90
1083;DHT22;530;51.448;7.238;2022-12-18T02:59:37;-0.10;99.90
1083;DHT22;530;51.448;7.238;2022-12-18T03:02:27;-0.20;99.90
1083;DHT22;530;51.448;7.238;2022-12-18T03:07:42;-0.40;99.90
1083;DHT22;530;51.448;7.238;2022-12-18T03:10:13;-0.30;99.90
1083;DHT22;530;51.448;7.238;2022-12-18T03:12:45;-0.10;99.90
1083;DHT22;530;51.448;7.238;2022-12-18T03:15:19;-0.10;99.90
1083;DHT22;530;51.448;7.238;2022-12-18T03:17:51;-0.20;99.90
1083;DHT22;530;51.448;7.238;2022-12-18T03:20:19;-0.30;99.90
1083;DHT22;530;51.448;7.238;2022-12-18T03:22:51;-0.20;99.90
1083;DHT22;530;51.448;7.238;2022-12-18T03:25:18;-0.30;99.90
1083;DHT22;530;51.448;7.238;2022-12-18T03:27:48;-0.20;99.90
1083;DHT22;530;51.448;7.238;2022-12-18T03:30:15;-0.10;99.90
1083;DHT22;530;51.448;7.238;2022-12-18T03:32:48;-0.40;99.90
1083;DHT22;530;51.448;7.238;2022-12-18T03:35:21;-0.40;99.90
1083;DHT22;530;51.448;7.238;2022-12-18T03:37:47;-0.20;99.90
1083;DHT22;530;51.448;7.238;2022-12-18T03:40:13;-0.20;99.90
1083;DHT22;530;51.448;7.238;2022-12-18T03:42:49;-0.20;99.90
1083;DHT22;530;51.448;7.238;2022-12-18T03:48:19;-0.40;99.90
1083;DHT22;530;51.448;7.238;2022-12-18T03:50:57;-0.10;99.90
1083;DHT22;530;51.448;7.238;2022-12-18T03:53:39;-0.30;99.90
1083;DHT22;530;51.448;7.238;2022-12-18T03:56:08;-0.10;99.90
1083;DHT22;530;51.448;7.238;2022-12-18T03:58:37;-0.40;99.90
1083;DHT22;530;51.448;7.238;2022-12-18T04:01:05;-0.20;99.90
1083;DHT22;530;51.448;7.238;2022-12-18T04:03:34;-0.30;99.90
1083;DHT22;530;51.448;7.238;2022-12-18T04:06:01;-0.20;99.90
1083;DHT22;530;51.448;7.238;2022-12-18T04:08:28;-0.30;99.90
1083;DHT22;530;51.448;7.238;2022-12-18T04:10:54;-0.20;99.90
1083;DHT22;530;51.448;7.238;2022-12-18T04:13:32;-0.30;99.90
1083;DHT22;530;51.448;7.238;2022-12-18T04:15:59;-0.30;99.90
1083;DHT22;530;51.448;7.238;2022-12-18T04:18:25;-0.40;99.90
1083;DHT22;530;51.448;7.238;2022-12-18T04:20:51;-0.20;99.90
1083;DHT22;530;51.448;7.238;2022-12-18T04:23:16;-0.20;99.90
1083;DHT22;530;51.448;7.238;2022-12-18T04:25:42;-0.20;99.90
1083;DHT22;530;51.448;7.238;2022-12-18T04:28:08;-0.20;99.90
1083;DHT22;530;51.448;7.238;2022-12-18T04:30:33;-0.20;99.90
1083;DHT22;530;51.448;7.238;2022-12-18T04:32:59;-0.10;99.90
1083;DHT22;530;51.448;7.238;2022-12-18T04:35:24;-0.50;99.90
1083;DHT22;530;51.448;7.238;2022-12-18T04:37:50;-0.20;99.90
1083;DHT22;530;51.448;7.238;2022-12-18T04:40:16;-0.20;99.90
1083;DHT22;530;51.448;7.238;2022-12-18T04:42:41;-0.40;99.90
1083;DHT22;530;51.448;7.238;2022-12-18T04:45:08;-0.30;99.90
1083;DHT22;530;51.448;7.238;2022-12-18T04:47:34;-0.40;99.90
1083;DHT22;530;51.448;7.238;2022-12-18T04:49:59;-0.30;99.90
1083;DHT22;530;51.448;7.238;2022-12-18T04:52:25;-0.40;99.90
1083;DHT22;530;51.448;7.238;2022-12-18T04:54:50;-0.30;99.90
1083;DHT22;530;51.448;7.238;2022-12-18T04:57:16;-0.30;99.90
1083;DHT22;530;51.448;7.238;2022-12-18T04:59:43;-0.20;99.90
1083;DHT22;530;51.448;7.238;2022-12-18T05:02:09;-0.30;99.90
1083;DHT22;530;51.448;7.238;2022-12-18T05:04:35;-0.30;99.90
1083;DHT22;530;51.448;7.238;2022-12-18T05:07:00;-0.60;99.90
1083;DHT22;530;51.448;7.238;2022-12-18T05:09:26;-0.40;99.90
1083;DHT22;530;51.448;7.238;2022-12-18T05:11:52;-0.60;99.90
1083;DHT22;530;51.448;7.238;2022-12-18T05:14:17;-0.50;99.90
1083;DHT22;530;51.448;7.238;2022-12-18T05:16:43;-0.50;99.90
1083;DHT22;530;51.448;7.238;2022-12-18T05:19:09;-0.50;99.90
1083;DHT22;530;51.448;7.238;2022-12-18T05:21:34;-0.20;99.90
1083;DHT22;530;51.448;7.238;2022-12-18T05:24:00;-0.20;99.90
1083;DHT22;530;51.448;7.238;2022-12-18T05:26:26;-0.10;99.90
1083;DHT22;530;51.448;7.238;2022-12-18T05:28:51;-0.40;99.90
1083;DHT22;530;51.448;7.238;2022-12-18T05:31:17;-0.10;99.90
1083;DHT22;530;51.448;7.238;2022-12-18T05:33:43;-0.30;99.90
1083;DHT22;530;51.448;7.238;2022-12-18T05:36:09;-0.50;99.90
1083;DHT22;530;51.448;7.238;2022-12-18T05:38:36;-0.20;99.90
1083;DHT22;530;51.448;7.238;2022-12-18T05:41:02;-0.40;99.90
1083;DHT22;530;51.448;7.238;2022-12-18T05:43:29;-0.30;99.90
1083;DHT22;530;51.448;7.238;2022-12-18T05:45:56;-0.40;99.90
1083;DHT22;530;51.448;7.238;2022-12-18T05:48:23;-0.20;99.90
1083;DHT22;530;51.448;7.238;2022-12-18T05:50:49;-0.30;99.90
1083;DHT22;530;51.448;7.238;2022-12-18T05:53:19;-0.40;99.90
1083;DHT22;530;51.448;7.238;2022-12-18T05:55:45;-0.20;99.90
1083;DHT22;530;51.448;7.238;2022-12-18T05:58:12;-0.50;99.90
1083;DHT22;530;51.448;7.238;2022-12-18T06:00:39;-0.40;99.90
1083;DHT22;530;51.448;7.238;2022-12-18T06:03:06;-0.20;99.90
1083;DHT22;530;51.448;7.238;2022-12-18T06:05:38;-0.10;99.90
1083;DHT22;530;51.448;7.238;2022-12-18T06:08:04;-0.40;99.90
1083;DHT22;530;51.448;7.238;2022-12-18T06:10:30;-0.30;99.90
1083;DHT22;530;51.448;7.238;2022-12-18T06:12:55;-0.40;99.90
1083;DHT22;530;51.448;7.238;2022-12-18T06:15:21;-0.40;99.90
1083;DHT22;530;51.448;7.238;2022-12-18T06:17:47;-0.40;99.90
1083;DHT22;530;51.448;7.238;2022-12-18T06:20:12;-0.30;99.90
1083;DHT22;530;51.448;7.238;2022-12-18T06:22:38;-0.30;99.90
1083;DHT22;530;51.448;7.238;2022-12-18T06:25:04;-0.50;99.90
1083;DHT22;530;51.448;7.238;2022-12-18T06:27:30;-0.20;99.90
1083;DHT22;530;51.448;7.238;2022-12-18T06:29:55;-0.50;99.90
1083;DHT22;530;51.448;7.238;2022-12-18T06:32:21;-0.50;99.90
1083;DHT22;530;51.448;7.238;2022-12-18T06:34:46;-0.30;99.90
1083;DHT22;530;51.448;7.238;2022-12-18T06:37:12;-0.30;99.90
1083;DHT22;530;51.448;7.238;2022-12-18T06:39:38;-0.50;99.90
1083;DHT22;530;51.448;7.238;2022-12-18T06:42:03;-0.20;99.90
1083;DHT22;530;51.448;7.238;2022-12-18T06:44:29;-0.60;99.90
1083;DHT22;530;51.448;7.238;2022-12-18T06:46:55;-0.50;99.90
1083;DHT22;530;51.448;7.238;2022-12-18T06:49:20;-0.30;99.90
1083;DHT22;530;51.448;7.238;2022-12-18T06:51:46;-0.50;99.90
1083;DHT22;530;51.448;7.238;2022-12-18T06:54:12;-0.50;99.90
1083;DHT22;530;51.448;7.238;2022-12-18T06:56:38;-0.50;99.90
1083;DHT22;530;51.448;7.238;2022-12-18T06:59:04;-0.30;99.90
1083;DHT22;530;51.448;7.238;2022-12-18T07:01:29;-0.40;99.90
1083;DHT22;530;51.448;7.238;2022-12-18T07:03:56;-0.60;99.90
1083;DHT22;530;51.448;7.238;2022-12-18T07:06:23;-0.50;99.90
1083;DHT22;530;51.448;7.238;2022-12-18T07:08:50;-0.50;99.90
1083;DHT22;530;51.448;7.238;2022-12-18T07:11:16;-0.30;99.90
1083;DHT22;530;51.448;7.238;2022-12-18T07:13:43;-0.50;99.90
1083;DHT22;530;51.448;7.238;2022-12-18T07:16:13;-0.50;99.90
1083;DHT22;530;51.448;7.238;2022-12-18T07:18:39;-0.40;99.90
1083;DHT22;530;51.448;7.238;2022-12-18T07:21:11;-0.30;99.90
1083;DHT22;530;51.448;7.238;2022-12-18T07:23:38;-0.30;99.90
1083;DHT22;530;51.448;7.238;2022-12-18T07:26:09;-0.30;99.90
1083;DHT22;530;51.448;7.238;2022-12-18T07:28:36;-0.30;99.90
1083;DHT22;530;51.448;7.238;2022-12-18T07:31:07;-0.30;99.90
1083;DHT22;530;51.448;7.238;2022-12-18T07:33:34;-0.30;99.90
1083;DHT22;530;51.448;7.238;2022-12-18T07:36:04;-0.40;99.90
1083;DHT22;530;51.448;7.238;2022-12-18T07:38:31;-0.40;99.90
1083;DHT22;530;51.448;7.238;2022-12-18T07:41:04;-0.30;99.90
1083;DHT22;530;51.448;7.238;2022-12-18T07:43:31;-0.30;99.90
1083;DHT22;530;51.448;7.238;2022-12-18T07:45:56;-0.40;99.90
1083;DHT22;530;51.448;7.238;2022-12-18T07:48:22;-0.20;99.90
1083;DHT22;530;51.448;7.238;2022-12-18T07:50:48;-0.10;99.90
1083;DHT22;530;51.448;7.238;2022-12-18T07:53:14;-0.40;99.90
1083;DHT22;530;51.448;7.238;2022-12-18T07:55:41;-0.40;99.90
1083;DHT22;530;51.448;7.238;2022-12-18T07:58:07;-0.20;99.90
1083;DHT22;530;51.448;7.238;2022-12-18T08:00:33;-0.20;99.90
1083;DHT22;530;51.448;7.238;2022-12-18T08:02:59;-0.10;99.90
1083;DHT22;530;51.448;7.238;2022-12-18T08:05:25;-0.20;99.90
1083;DHT22;530;51.448;7.238;2022-12-18T08:07:51;-0.20;99.90
1083;DHT22;530;51.448;7.238;2022-12-18T08:10:17;-0.20;99.90
1083;DHT22;530;51.448;7.238;2022-12-18T08:12:43;0.00;99.90
1083;DHT22;530;51.448;7.238;2022-12-18T08:15:09;-0.20;99.80
1083;DHT22;530;51.448;7.238;2022-12-18T08:17:34;0.00;99.90
1083;DHT22;530;51.448;7.238;2022-12-18T08:20:00;-0.10;99.30
1083;DHT22;530;51.448;7.238;2022-12-18T08:22:26;0.10;99.60
1083;DHT22;530;51.448;7.238;2022-12-18T08:24:51;0.20;99.50
1083;DHT22;530;51.448;7.238;2022-12-18T08:27:17;0.30;99.00
1083;DHT22;530;51.448;7.238;2022-12-18T08:29:43;0.30;98.70
1083;DHT22;530;51.448;7.238;2022-12-18T08:32:08;0.30;98.40
1083;DHT22;530;51.448;7.238;2022-12-18T08:34:34;0.50;98.70
1083;DHT22;530;51.448;7.238;2022-12-18T08:37:00;0.80;97.90
1083;DHT22;530;51.448;7.238;2022-12-18T08:39:26;1.00;97.60
1083;DHT22;530;51.448;7.238;2022-12-18T08:41:51;1.30;97.20
1083;DHT22;530;51.448;7.238;2022-12-18T08:44:40;1.50;96.50
1083;DHT22;530;51.448;7.238;2022-12-18T08:47:07;1.80;95.80
1083;DHT22;530;51.448;7.238;2022-12-18T08:49:33;2.10;95.50
1083;DHT22;530;51.448;7.238;2022-12-18T08:51:59;2.00;95.10
1083;DHT22;530;51.448;7.238;2022-12-18T08:54:26;2.40;94.90
1083;DHT22;530;51.448;7.238;2022-12-18T08:56:52;2.50;94.10
1083;DHT22;530;51.448;7.238;2022-12-18T08:59:18;2.50;93.90
1083;DHT22;530;51.448;7.238;2022-12-18T09:01:44;2.70;94.20
1083;DHT22;530;51.448;7.238;2022-12-18T09:04:10;3.10;93.60
1083;DHT22;530;51.448;7.238;2022-12-18T09:06:37;3.20;93.20
1083;DHT22;530;51.448;7.238;2022-12-18T09:09:04;3.30;92.00
1083;DHT22;530;51.448;7.238;2022-12-18T09:11:31;3.30;92.00
1083;DHT22;530;51.448;7.238;2022-12-18T09:13:57;3.50;92.10
1083;DHT22;530;51.448;7.238;2022-12-18T09:16:25;3.40;92.00
1083;DHT22;530;51.448;7.238;2022-12-18T09:18:51;3.40;91.90
1083;DHT22;530;51.448;7.238;2022-12-18T09:21:20;3.40;91.40
1083;DHT22;530;51.448;7.238;2022-12-18T09:23:50;3.70;91.10
1083;DHT22;530;51.448;7.238;2022-12-18T09:26:16;3.50;91.20
1083;DHT22;530;51.448;7.238;2022-12-18T09:28:42;3.60;91.50
1083;DHT22;530;51.448;7.238;2022-12-18T09:31:08;3.50;90.90
1083;DHT22;530;51.448;7.238;2022-12-18T09:33:37;3.30;91.20
1083;DHT22;530;51.448;7.238;2022-12-18T09:36:07;3.50;90.40
1083;DHT22;530;51.448;7.238;2022-12-18T09:38:33;3.60;90.30
1083;DHT22;530;51.448;7.238;2022-12-18T09:44:05;4.00;89.40
1083;DHT22;530;51.448;7.238;2022-12-18T09:46:42;4.30;89.50
1083;DHT22;530;51.448;7.238;2022-12-18T09:49:16;4.40;87.90
1083;DHT22;530;51.448;7.238;2022-12-18T09:54:24;4.60;89.10
1083;DHT22;530;51.448;7.238;2022-12-18T09:56:51;4.50;87.10
1083;DHT22;530;51.448;7.238;2022-12-18T09:59:32;4.50;86.00
1083;DHT22;530;51.448;7.238;2022-12-18T10:01:59;4.50;86.70
1083;DHT22;530;51.448;7.238;2022-12-18T10:04:28;4.30;85.10
1083;DHT22;530;51.448;7.238;2022-12-18T10:07:09;4.30;85.10
1083;DHT22;530;51.448;7.238;2022-12-18T10:12:17;4.20;84.20
1083;DHT22;530;51.448;7.238;2022-12-18T10:18:06;4.10;85.70
1083;DHT22;530;51.448;7.238;2022-12-18T10:20:42;4.10;86.70
1083;DHT22;530;51.448;7.238;2022-12-18T10:28:15;4.10;85.80
1083;DHT22;530;51.448;7.238;2022-12-18T10:30:43;3.90;85.10
1083;DHT22;530;51.448;7.238;2022-12-18T10:33:19;3.80;85.60
1083;DHT22;530;51.448;7.238;2022-12-18T10:35:45;3.90;86.80
1083;DHT22;530;51.448;7.238;2022-12-18T10:40:57;3.70;86.70
1083;DHT22;530;51.448;7.238;2022-12-18T10:43:32;3.90;86.00
1083;DHT22;530;51.448;7.238;2022-12-18T10:46:15;3.90;85.60
1083;DHT22;530;51.448;7.238;2022-12-18T10:51:29;3.70;85.20
1083;DHT22;530;51.448;7.238;2022-12-18T10:54:14;3.90;86.70
1083;DHT22;530;51.448;7.238;2022-12-18T10:56:41;3.90;87.00
1083;DHT22;530;51.448;7.238;2022-12-18T10:59:10;3.90;84.00
1083;DHT22;530;51.448;7.238;2022-12-18T11:01:51;4.00;83.90
1083;DHT22;530;51.448;7.238;2022-12-18T11:04:23;3.90;84.40
1083;DHT22;530;51.448;7.238;2022-12-18T11:09:23;3.70;82.80
1083;DHT22;530;51.448;7.238;2022-12-18T11:12:00;3.90;84.50
1083;DHT22;530;51.448;7.238;2022-12-18T11:14:32;4.00;84.20
1083;DHT22;530;51.448;7.238;2022-12-18T11:16:59;3.90;84.40
1083;DHT22;530;51.448;7.238;2022-12-18T11:19:33;3.80;83.60
1083;DHT22;530;51.448;7.238;2022-12-18T11:22:00;3.80;86.10
1083;DHT22;530;51.448;7.238;2022-12-18T11:24:32;3.90;85.00
1083;DHT22;530;51.448;7.238;2022-12-18T11:27:02;4.10;84.10
1083;DHT22;530;51.448;7.238;2022-12-18T11:29:32;4.00;83.20
1083;DHT22;530;51.448;7.238;2022-12-18T11:35:13;3.90;83.70
1083;DHT22;530;51.448;7.238;2022-12-18T11:37:42;3.90;82.70
1083;DHT22;530;51.448;7.238;2022-12-18T11:40:19;3.90;83.60
1083;DHT22;530;51.448;7.238;2022-12-18T11:43:02;4.00;84.20
1083;DHT22;530;51.448;7.238;2022-12-18T11:45:34;4.00;81.90
1083;DHT22;530;51.448;7.238;2022-12-18T11:50:53;4.00;83.10
1083;DHT22;530;51.448;7.238;2022-12-18T11:53:20;3.90;83.50
1083;DHT22;530;51.448;7.238;2022-12-18T12:01:31;3.80;82.40
1083;DHT22;530;51.448;7.238;2022-12-18T12:04:27;3.80;81.10
1083;DHT22;530;51.448;7.238;2022-12-18T12:15:48;4.00;83.50
1083;DHT22;530;51.448;7.238;2022-12-18T12:30:29;3.80;82.80
1083;DHT22;530;51.448;7.238;2022-12-18T12:38:25;3.90;80.90
1083;DHT22;530;51.448;7.238;2022-12-18T12:41:03;3.70;81.30
1083;DHT22;530;51.448;7.238;2022-12-18T12:43:41;3.80;81.90
1083;DHT22;530;51.448;7.238;2022-12-18T12:46:11;3.70;82.90
1083;DHT22;530;51.448;7.238;2022-12-18T12:51:34;3.70;84.80
1083;DHT22;530;51.448;7.238;2022-12-18T12:54:01;3.80;85.60
1083;DHT22;530;51.448;7.238;2022-12-18T12:56:59;3.90;86.70
1083;DHT22;530;51.448;7.238;2022-12-18T12:59:46;3.70;86.70
1083;DHT22;530;51.448;7.238;2022-12-18T13:08:09;3.90;87.10
1083;DHT22;530;51.448;7.238;2022-12-18T13:10:42;3.70;86.00
1083;DHT22;530;51.448;7.238;2022-12-18T13:13:15;3.60;86.00
1083;DHT22;530;51.448;7.238;2022-12-18T13:16:04;3.70;85.80
1083;DHT22;530;51.448;7.238;2022-12-18T13:18:30;3.80;87.10
1083;DHT22;530;51.448;7.238;2022-12-18T13:31:58;3.40;88.00
1083;DHT22;530;51.448;7.238;2022-12-18T13:34:20;3.60;88.70
1083;DHT22;530;51.448;7.238;2022-12-18T13:36:47;3.50;89.40
1083;DHT22;530;51.448;7.238;2022-12-18T13:44:31;3.50;90.50
1083;DHT22;530;51.448;7.238;2022-12-18T13:46:59;3.30;90.80
1083;DHT22;530;51.448;7.238;2022-12-18T13:49:43;3.40;91.30
1083;DHT22;530;51.448;7.238;2022-12-18T13:52:24;3.30;91.00
1083;DHT22;530;51.448;7.238;2022-12-18T13:54:55;3.20;91.20
1083;DHT22;530;51.448;7.238;2022-12-18T13:57:36;3.30;91.60
1083;DHT22;530;51.448;7.238;2022-12-18T14:00:32;3.40;91.80
1083;DHT22;530;51.448;7.238;2022-12-18T14:02:59;3.40;91.70
1083;DHT22;530;51.448;7.238;2022-12-18T14:05:36;3.10;92.00
1083;DHT22;530;51.448;7.238;2022-12-18T14:08:10;3.10;92.50
1083;DHT22;530;51.448;7.238;2022-12-18T14:10:43;3.00;92.40
1083;DHT22;530;51.448;7.238;2022-12-18T14:13:10;3.30;92.60
1083;DHT22;530;51.448;7.238;2022-12-18T14:15:41;3.20;92.90
1083;DHT22;530;51.448;7.238;2022-12-18T14:21:29;3.00;93.80
1083;DHT22;530;51.448;7.238;2022-12-18T14:24:20;2.90;94.00
1083;DHT22;530;51.448;7.238;2022-12-18T14:26:48;2.80;93.90
1083;DHT22;530;51.448;7.238;2022-12-18T14:32:25;3.00;94.30
1083;DHT22;530;51.448;7.238;2022-12-18T14:34:53;2.90;94.30
1083;DHT22;530;51.448;7.238;2022-12-18T14:37:26;2.80;94.30
1083;DHT22;530;51.448;7.238;2022-12-18T14:39:59;2.90;94.80
1083;DHT22;530;51.448;7.238;2022-12-18T14:42:27;2.80;94.70
1083;DHT22;530;51.448;7.238;2022-12-18T14:47:57;2.70;94.30
1083;DHT22;530;51.448;7.238;2022-12-18T14:50:23;2.90;94.60
1083;DHT22;530;51.448;7.238;2022-12-18T14:52:49;2.60;94.20
1083;DHT22;530;51.448;7.238;2022-12-18T14:55:16;2.80;94.30
1083;DHT22;530;51.448;7.238;2022-12-18T14:57:43;2.90;94.60
1083;DHT22;530;51.448;7.238;2022-12-18T15:00:18;2.70;94.00
1083;DHT22;530;51.448;7.238;2022-12-18T15:02:54;2.70;93.80
1083;DHT22;530;51.448;7.238;2022-12-18T15:05:28;2.90;93.90
1083;DHT22;530;51.448;7.238;2022-12-18T15:07:56;2.80;94.00
1083;DHT22;530;51.448;7.238;2022-12-18T15:10:24;3.00;94.20
1083;DHT22;530;51.448;7.238;2022-12-18T15:18:16;2.80;94.00
1083;DHT22;530;51.448;7.238;2022-12-18T15:28:36;2.70;94.40
1083;DHT22;530;51.448;7.238;2022-12-18T15:33:36;2.70;94.10
1083;DHT22;530;51.448;7.238;2022-12-18T15:36:09;2.40;94.10
1083;DHT22;530;51.448;7.238;2022-12-18T15:38:35;2.80;93.80
1083;DHT22;530;51.448;7.238;2022-12-18T15:41:00;2.70;93.90
1083;DHT22;530;51.448;7.238;2022-12-18T15:43:27;2.50;93.90
1083;DHT22;530;51.448;7.238;2022-12-18T15:46:09;2.60;94.30
1083;DHT22;530;51.448;7.238;2022-12-18T15:48:41;2.50;94.50
1083;DHT22;530;51.448;7.238;2022-12-18T15:51:34;2.40;94.80
1083;DHT22;530;51.448;7.238;2022-12-18T15:54:05;2.50;94.90
1083;DHT22;530;51.448;7.238;2022-12-18T15:56:34;2.30;95.20
1083;DHT22;530;51.448;7.238;2022-12-18T15:59:19;2.30;95.50
1083;DHT22;530;51.448;7.238;2022-12-18T16:01:51;2.50;95.50
1083;DHT22;530;51.448;7.238;2022-12-18T16:04:19;2.40;95.80
1083;DHT22;530;51.448;7.238;2022-12-18T16:06:46;2.40;96.00
1083;DHT22;530;51.448;7.238;2022-12-18T16:09:12;2.50;96.20
1083;DHT22;530;51.448;7.238;2022-12-18T16:11:40;2.40;96.30
1083;DHT22;530;51.448;7.238;2022-12-18T16:14:22;2.60;96.50
1083;DHT22;530;51.448;7.238;2022-12-18T16:16:59;2.60;96.70
1083;DHT22;530;51.448;7.238;2022-12-18T16:19:25;2.30;96.90
1083;DHT22;530;51.448;7.238;2022-12-18T16:21:53;2.40;97.20
1083;DHT22;530;51.448;7.238;2022-12-18T16:24:28;2.60;97.50
1083;DHT22;530;51.448;7.238;2022-12-18T16:26:55;2.40;98.00
1083;DHT22;530;51.448;7.238;2022-12-18T16:29:21;2.40;98.00
1083;DHT22;530;51.448;7.238;2022-12-18T16:31:50;2.40;98.20
1083;DHT22;530;51.448;7.238;2022-12-18T16:34:24;2.30;98.30
1083;DHT22;530;51.448;7.238;2022-12-18T16:36:57;2.50;98.60
1083;DHT22;530;51.448;7.238;2022-12-18T16:39:24;2.60;98.80
1083;DHT22;530;51.448;7.238;2022-12-18T16:41:50;2.40;99.10
1083;DHT22;530;51.448;7.238;2022-12-18T16:44:16;2.30;99.50
1083;DHT22;530;51.448;7.238;2022-12-18T16:46:42;2.20;99.90
1083;DHT22;530;51.448;7.238;2022-12-18T16:49:13;2.20;99.90
1083;DHT22;530;51.448;7.238;2022-12-18T16:51:40;2.40;99.90
1083;DHT22;530;51.448;7.238;2022-12-18T16:54:05;2.30;99.90
1083;DHT22;530;51.448;7.238;2022-12-18T16:56:31;2.30;99.90
1083;DHT22;530;51.448;7.238;2022-12-18T16:58:59;2.20;99.90
1083;DHT22;530;51.448;7.238;2022-12-18T17:01:27;2.60;99.90
1083;DHT22;530;51.448;7.238;2022-12-18T17:04:02;2.60;99.90
1083;DHT22;530;51.448;7.238;2022-12-18T17:06:34;2.60;99.90
1083;DHT22;530;51.448;7.238;2022-12-18T17:09:07;2.30;99.90
1083;DHT22;530;51.448;7.238;2022-12-18T17:11:34;2.40;99.90
1083;DHT22;530;51.448;7.238;2022-12-18T17:14:06;2.60;99.90
1083;DHT22;530;51.448;7.238;2022-12-18T17:16:31;2.60;99.90
1083;DHT22;530;51.448;7.238;2022-12-18T17:18:57;2.30;99.90
1083;DHT22;530;51.448;7.238;2022-12-18T17:21:23;2.40;99.90
1083;DHT22;530;51.448;7.238;2022-12-18T17:23:48;2.10;99.90
1083;DHT22;530;51.448;7.238;2022-12-18T17:26:14;2.30;99.90
1083;DHT22;530;51.448;7.238;2022-12-18T17:28:40;2.10;99.90
1083;DHT22;530;51.448;7.238;2022-12-18T17:31:23;2.30;99.90
1083;DHT22;530;51.448;7.238;2022-12-18T17:33:49;2.10;99.90
1083;DHT22;530;51.448;7.238;2022-12-18T17:36:15;2.20;99.90
1083;DHT22;530;51.448;7.238;2022-12-18T17:38:42;1.90;99.90
1083;DHT22;530;51.448;7.238;2022-12-18T17:41:09;2.00;99.90
1083;DHT22;530;51.448;7.238;2022-12-18T17:43:36;2.10;99.90
1083;DHT22;530;51.448;7.238;2022-12-18T17:46:06;1.90;99.90
1083;DHT22;530;51.448;7.238;2022-12-18T17:48:32;1.90;99.90
1083;DHT22;530;51.448;7.238;2022-12-18T17:51:03;1.90;99.90
1083;DHT22;530;51.448;7.238;2022-12-18T17:53:28;2.00;99.90
1083;DHT22;530;51.448;7.238;2022-12-18T17:55:55;2.00;99.90
1083;DHT22;530;51.448;7.238;2022-12-18T17:58:22;2.10;99.90
1083;DHT22;530;51.448;7.238;2022-12-18T18:00:48;2.00;99.90
1083;DHT22;530;51.448;7.238;2022-12-18T18:03:13;2.00;99.90
1083;DHT22;530;51.448;7.238;2022-12-18T18:05:39;1.90;99.90
1083;DHT22;530;51.448;7.238;2022-12-18T18:08:05;1.90;99.90
1083;DHT22;530;51.448;7.238;2022-12-18T18:10:31;2.10;99.90
1083;DHT22;530;51.448;7.238;2022-12-18T18:13:00;1.90;99.90
1083;DHT22;530;51.448;7.238;2022-12-18T18:15:44;2.00;99.90
1083;DHT22;530;51.448;7.238;2022-12-18T18:18:09;1.80;99.90
1083;DHT22;530;51.448;7.238;2022-12-18T18:20:39;1.80;99.90
1083;DHT22;530;51.448;7.238;2022-12-18T18:23:05;2.10;99.90
1083;DHT22;530;51.448;7.238;2022-12-18T18:25:35;1.80;99.90
1083;DHT22;530;51.448;7.238;2022-12-18T18:28:01;1.80;99.90
1083;DHT22;530;51.448;7.238;2022-12-18T18:30:27;1.60;99.90
1083;DHT22;530;51.448;7.238;2022-12-18T18:32:52;1.70;99.90
1083;DHT22;530;51.448;7.238;2022-12-18T18:35:18;1.80;99.90
1083;DHT22;530;51.448;7.238;2022-12-18T18:37:46;1.90;99.90
1083;DHT22;530;51.448;7.238;2022-12-18T18:40:11;1.70;99.90
1083;DHT22;530;51.448;7.238;2022-12-18T18:42:37;1.70;99.90
1083;DHT22;530;51.448;7.238;2022-12-18T18:45:03;1.70;99.90
1083;DHT22;530;51.448;7.238;2022-12-18T18:47:29;1.60;99.90
1083;DHT22;530;51.448;7.238;2022-12-18T18:49:55;1.60;99.90
1083;DHT22;530;51.448;7.238;2022-12-18T18:52:21;1.90;99.90
1083;DHT22;530;51.448;7.238;2022-12-18T18:54:47;1.80;99.90